createdAt,value
2018-04-27T00:01:10.017Z,3.37
2018-04-27T00:03:36.207Z,3.37
2018-04-27T00:06:02.433Z,3.93
2018-04-27T00:08:28.633Z,3.77
2018-04-27T00:10:55.550Z,3.70
2018-04-27T00:13:21.738Z,3.90
2018-04-27T00:15:47.926Z,3.67
2018-04-27T00:18:14.131Z,3.90
2018-04-27T00:20:40.310Z,4.20
2018-04-27T00:23:06.497Z,3.50
2018-04-27T00:25:32.698Z,4.07
2018-04-27T00:27:58.926Z,3.57
2018-04-27T00:30:25.162Z,3.93
2018-04-27T00:32:51.352Z,4.03
2018-04-27T00:35:17.530Z,4.07
2018-04-27T00:37:43.718Z,3.87
2018-04-27T00:40:09.909Z,4.00
2018-04-27T00:42:36.101Z,3.90
2018-04-27T00:45:03.017Z,3.53
2018-04-27T00:47:29.190Z,3.60
2018-04-27T00:49:56.125Z,4.00
2018-04-27T00:52:23.036Z,3.33
2018-04-27T00:54:49.242Z,3.80
2018-04-27T00:57:15.412Z,4.00
2018-04-27T00:59:41.576Z,4.00
2018-04-27T01:02:08.509Z,4.07
2018-04-27T01:04:34.689Z,4.20
2018-04-27T01:07:00.894Z,4.20
2018-04-27T01:09:27.821Z,3.57
2018-04-27T01:11:54.007Z,4.33
2018-04-27T01:14:20.193Z,3.90
2018-04-27T01:16:46.371Z,4.13
2018-04-27T01:19:12.540Z,3.97
2018-04-27T01:21:38.739Z,3.70
2018-04-27T01:24:04.985Z,3.93
2018-04-27T01:26:31.502Z,4.27
2018-04-27T01:28:57.689Z,4.90
2018-04-27T01:31:23.873Z,4.90
2018-04-27T01:33:50.037Z,4.37
2018-04-27T01:36:16.213Z,5.00
2018-04-27T01:38:43.138Z,5.10
2018-04-27T01:41:09.346Z,4.17
2018-04-27T01:43:35.549Z,4.40
2018-04-27T01:46:01.717Z,4.17
2018-04-27T01:48:27.893Z,4.27
2018-04-27T01:50:54.830Z,4.20
2018-04-27T01:53:21.029Z,3.40
2018-04-27T01:55:47.217Z,4.10
2018-04-27T01:58:14.141Z,3.40
2018-04-27T02:00:40.334Z,3.63
2018-04-27T02:03:06.531Z,3.50
2018-04-27T02:05:33.479Z,4.13
2018-04-27T02:08:00.402Z,4.10
2018-04-27T02:10:26.610Z,3.87
2018-04-27T02:12:52.817Z,3.17
2018-04-27T02:15:19.023Z,4.03
2018-04-27T02:17:46.025Z,3.20
2018-04-27T02:20:12.207Z,3.67
2018-04-27T02:22:39.150Z,3.60
2018-04-27T02:25:06.198Z,3.67
2018-04-27T02:27:32.588Z,3.60
2018-04-27T02:29:59.554Z,3.63
2018-04-27T02:32:25.740Z,3.90
2018-04-27T02:34:52.669Z,4.77
2018-04-27T02:37:19.603Z,3.47
2018-04-27T02:39:45.764Z,3.23
2018-04-27T02:42:12.707Z,3.37
2018-04-27T02:44:39.622Z,4.57
2018-04-27T02:47:05.799Z,3.67
2018-04-27T02:49:32.729Z,3.87
2018-04-27T02:51:58.910Z,3.97
2018-04-27T02:54:25.116Z,4.33
2018-04-27T02:56:52.037Z,4.97
2018-04-27T02:59:18.250Z,4.33
2018-04-27T03:01:44.441Z,4.70
2018-04-27T03:04:10.609Z,4.20
2018-04-27T03:06:36.801Z,4.57
2018-04-27T03:09:03.729Z,4.63
2018-04-27T03:11:29.918Z,4.93
2018-04-27T03:13:56.134Z,4.90
2018-04-27T03:16:22.325Z,4.73
2018-04-27T03:18:49.341Z,4.97
2018-04-27T03:21:15.564Z,4.60
2018-04-27T03:23:41.774Z,4.90
2018-04-27T03:26:08.350Z,5.20
2018-04-27T03:28:34.666Z,5.83
2018-04-27T03:31:00.929Z,5.00
2018-04-27T03:33:27.113Z,6.00
2018-04-27T03:35:53.289Z,5.57
2018-04-27T03:38:19.473Z,5.70
2018-04-27T03:40:46.398Z,7.20
2018-04-27T03:43:12.598Z,5.30
2018-04-27T03:45:38.774Z,5.50
2018-04-27T03:48:05.690Z,5.33
2018-04-27T03:50:31.878Z,5.70
2018-04-27T03:52:58.078Z,6.40
2018-04-27T03:55:24.282Z,5.17
2018-04-27T03:57:50.456Z,5.50
2018-04-27T04:00:29.848Z,6.87
2018-04-27T04:03:08.547Z,5.40
2018-04-27T04:05:34.766Z,5.50
2018-04-27T04:08:00.953Z,5.53
2018-04-27T04:10:27.141Z,5.60
2018-04-27T04:12:53.396Z,5.47
2018-04-27T04:15:19.574Z,5.97
2018-04-27T04:17:46.531Z,6.10
2018-04-27T04:20:13.462Z,5.97
2018-04-27T04:22:39.666Z,6.43
2018-04-27T04:25:05.864Z,6.53
2018-04-27T04:27:32.037Z,6.33
2018-04-27T04:29:58.237Z,6.53
2018-04-27T04:32:24.490Z,5.90
2018-04-27T04:34:51.357Z,6.20
2018-04-27T04:37:17.578Z,6.20
2018-04-27T04:39:43.741Z,6.30
2018-04-27T04:42:09.937Z,6.13
2018-04-27T04:44:36.102Z,5.83
2018-04-27T04:47:03.770Z,6.00
2018-04-27T04:49:31.458Z,5.77
2018-04-27T04:51:58.388Z,6.17
2018-04-27T04:54:24.590Z,5.13
2018-04-27T04:56:50.757Z,5.33
2018-04-27T04:59:18.426Z,6.03
2018-04-27T05:01:44.620Z,5.70
2018-04-27T05:04:10.824Z,5.73
2018-04-27T05:06:37.033Z,5.53
2018-04-27T05:09:03.979Z,5.63
2018-04-27T05:11:30.937Z,5.00
2018-04-27T05:13:57.866Z,5.40
2018-04-27T05:16:24.074Z,5.90
2018-04-27T05:18:52.181Z,4.90
2018-04-27T05:21:18.381Z,4.93
2018-04-27T05:23:44.586Z,5.33
2018-04-27T05:26:10.769Z,5.80
2018-04-27T05:28:37.186Z,5.07
2018-04-27T05:31:15.682Z,4.97
2018-04-27T05:33:41.878Z,5.30
2018-04-27T05:36:08.820Z,5.70
2018-04-27T05:38:35.012Z,5.43
2018-04-27T05:41:01.250Z,4.70
2018-04-27T05:43:27.483Z,6.07
2018-04-27T05:45:53.683Z,4.73
2018-04-27T05:48:19.877Z,6.07
2018-04-27T05:50:46.834Z,5.47
2018-04-27T05:53:13.041Z,5.60
2018-04-27T05:55:39.280Z,5.73
2018-04-27T05:58:05.473Z,5.43
2018-04-27T06:00:31.672Z,5.27
2018-04-27T06:02:58.608Z,5.67
2018-04-27T06:05:24.808Z,4.67
2018-04-27T06:07:51.009Z,4.23
2018-04-27T06:10:17.461Z,4.40
2018-04-27T06:12:43.665Z,4.80
2018-04-27T06:15:10.591Z,4.77
2018-04-27T06:17:36.786Z,4.40
2018-04-27T06:20:02.993Z,4.70
2018-04-27T06:22:29.181Z,4.60
2018-04-27T06:24:55.402Z,4.33
2018-04-27T06:27:21.601Z,4.37
2018-04-27T06:29:47.894Z,4.37
2018-04-27T06:32:14.137Z,4.00
2018-04-27T06:34:40.341Z,3.47
2018-04-27T06:37:06.593Z,3.43
2018-04-27T06:39:32.781Z,3.83
2018-04-27T06:41:58.978Z,3.07
2018-04-27T06:44:25.917Z,3.07
2018-04-27T06:46:52.101Z,3.57
2018-04-27T06:49:18.302Z,3.63
2018-04-27T06:51:45.241Z,3.57
2018-04-27T06:54:11.429Z,3.50
2018-04-27T06:56:37.617Z,3.53
2018-04-27T06:59:04.523Z,3.50
2018-04-27T07:01:30.749Z,3.70
2018-04-27T07:03:56.928Z,3.57
2018-04-27T07:06:23.866Z,3.43
2018-04-27T07:08:50.079Z,3.57
2018-04-27T07:11:16.278Z,3.77
2018-04-27T07:13:42.490Z,3.50
2018-04-27T07:16:08.693Z,3.40
2018-04-27T07:18:34.879Z,3.80
2018-04-27T07:21:01.080Z,3.60
2018-04-27T07:23:27.985Z,3.63
2018-04-27T07:25:54.208Z,4.03
2018-04-27T07:28:20.424Z,3.57
2018-04-27T07:30:46.625Z,3.90
2018-04-27T07:33:13.595Z,3.90
2018-04-27T07:35:39.785Z,4.03
2018-04-27T07:38:06.026Z,3.10
2018-04-27T07:40:32.974Z,3.00
2018-04-27T07:42:59.934Z,3.87
2018-04-27T07:45:26.129Z,3.60
2018-04-27T07:47:52.332Z,3.20
2018-04-27T07:50:18.552Z,3.63
2018-04-27T07:52:45.491Z,3.17
2018-04-27T07:55:12.396Z,3.80
2018-04-27T07:57:38.594Z,3.00
2018-04-27T08:00:04.818Z,3.10
2018-04-27T08:02:31.046Z,3.67
2018-04-27T08:04:57.282Z,3.30
2018-04-27T08:07:24.228Z,3.60
2018-04-27T08:09:51.188Z,3.93
2018-04-27T08:12:17.393Z,3.43
2018-04-27T08:14:43.596Z,3.90
2018-04-27T08:17:09.786Z,4.07
2018-04-27T08:19:36.722Z,2.87
2018-04-27T08:22:03.663Z,4.00
2018-04-27T08:24:30.639Z,3.80
2018-04-27T08:26:56.813Z,4.13
2018-04-27T08:29:23.014Z,3.43
2018-04-27T08:31:49.218Z,3.63
2018-04-27T08:34:15.430Z,3.60
2018-04-27T08:36:41.606Z,3.53
2018-04-27T08:39:07.934Z,3.47
2018-04-27T08:41:34.865Z,3.47
2018-04-27T08:44:01.067Z,4.23
2018-04-27T08:46:28.251Z,3.40
2018-04-27T08:48:54.450Z,3.90
2018-04-27T08:51:20.658Z,3.33
2018-04-27T08:53:46.909Z,3.80
2018-04-27T08:56:13.105Z,3.67
2018-04-27T08:58:40.053Z,3.00
2018-04-27T09:01:06.998Z,3.47
2018-04-27T09:03:33.922Z,3.53
2018-04-27T09:06:00.147Z,4.00
2018-04-27T09:08:26.346Z,3.50
2018-04-27T09:10:52.528Z,3.50
2018-04-27T09:13:18.751Z,3.67
2018-04-27T09:15:44.951Z,3.30
2018-04-27T09:18:11.166Z,3.60
2018-04-27T09:20:37.369Z,3.40
2018-04-27T09:23:03.569Z,3.00
2018-04-27T09:25:29.806Z,3.40
2018-04-27T09:27:55.993Z,3.20
2018-04-27T09:30:22.365Z,3.23
2018-04-27T09:32:48.704Z,3.17
2018-04-27T09:35:14.898Z,3.27
2018-04-27T09:37:41.846Z,3.70
2018-04-27T09:40:08.782Z,3.30
2018-04-27T09:42:35.706Z,2.50
2018-04-27T09:45:01.898Z,2.77
2018-04-27T09:47:28.094Z,2.87
2018-04-27T09:49:54.332Z,2.80
2018-04-27T09:52:21.267Z,3.50
2018-04-27T09:54:47.450Z,2.77
2018-04-27T09:57:13.679Z,2.60
2018-04-27T09:59:39.889Z,2.67
2018-04-27T10:02:06.873Z,2.70
2018-04-27T10:04:33.068Z,2.50
2018-04-27T10:06:59.998Z,2.83
2018-04-27T10:09:26.185Z,2.30
2018-04-27T10:11:52.369Z,2.80
2018-04-27T10:14:18.582Z,2.50
2018-04-27T10:16:44.782Z,2.53
2018-04-27T10:19:10.978Z,2.30
2018-04-27T10:21:37.906Z,2.50
2018-04-27T10:24:04.089Z,2.60
2018-04-27T10:26:30.308Z,2.60
2018-04-27T10:28:57.246Z,2.63
2018-04-27T10:31:24.982Z,2.40
2018-04-27T10:33:51.723Z,2.37
2018-04-27T10:36:17.918Z,1.73
2018-04-27T10:38:44.151Z,2.43
2018-04-27T10:41:10.341Z,1.83
2018-04-27T10:43:36.538Z,2.50
2018-04-27T10:46:02.733Z,2.47
2018-04-27T10:48:29.665Z,2.33
2018-04-27T10:50:55.882Z,2.37
2018-04-27T10:53:22.109Z,2.07
2018-04-27T10:55:48.310Z,2.00
2018-04-27T10:58:14.518Z,2.23
2018-04-27T11:00:41.760Z,2.97
2018-04-27T11:03:08.704Z,2.40
2018-04-27T11:05:34.899Z,2.13
2018-04-27T11:08:01.113Z,2.87
2018-04-27T11:10:27.296Z,2.63
2018-04-27T11:12:53.468Z,2.87
2018-04-27T11:15:19.681Z,2.40
2018-04-27T11:17:46.628Z,1.80
2018-04-27T11:20:12.894Z,2.50
2018-04-27T11:22:39.023Z,2.27
2018-04-27T11:25:05.217Z,1.77
2018-04-27T11:27:31.451Z,1.87
2018-04-27T11:29:57.639Z,1.40
2018-04-27T11:32:24.264Z,1.70
2018-04-27T11:34:50.941Z,1.73
2018-04-27T11:37:17.122Z,2.20
2018-04-27T11:39:44.070Z,2.40
2018-04-27T11:42:10.977Z,2.33
2018-04-27T11:44:37.166Z,2.30
2018-04-27T11:47:03.365Z,2.03
2018-04-27T11:49:29.571Z,2.10
2018-04-27T11:51:55.949Z,2.07
2018-04-27T11:54:22.140Z,1.70
2018-04-27T11:56:48.350Z,1.70
2018-04-27T11:59:14.558Z,1.93
2018-04-27T12:01:41.596Z,1.80
2018-04-27T12:04:07.729Z,1.70
2018-04-27T12:06:33.947Z,1.40
2018-04-27T12:09:00.136Z,1.77
2018-04-27T12:11:26.341Z,1.50
2018-04-27T12:13:53.263Z,1.83
2018-04-27T12:16:19.485Z,1.40
2018-04-27T12:18:45.683Z,1.93
2018-04-27T12:21:11.862Z,1.70
2018-04-27T12:23:38.058Z,1.43
2018-04-27T12:26:04.245Z,1.70
2018-04-27T12:28:31.189Z,1.67
2018-04-27T12:30:57.384Z,1.50
2018-04-27T12:33:23.574Z,1.60
2018-04-27T12:35:49.829Z,1.73
2018-04-27T12:38:16.018Z,1.47
2018-04-27T12:40:42.223Z,1.67
2018-04-27T12:43:08.426Z,1.60
2018-04-27T12:45:34.608Z,1.20
2018-04-27T12:48:00.810Z,1.70
2018-04-27T12:50:27.014Z,1.90
2018-04-27T12:52:53.273Z,1.50
2018-04-27T12:55:19.465Z,1.27
2018-04-27T12:57:46.440Z,1.37
2018-04-27T13:00:12.622Z,1.20
2018-04-27T13:02:38.818Z,1.67
2018-04-27T13:05:05.019Z,1.10
2018-04-27T13:07:31.937Z,1.50
2018-04-27T13:09:58.130Z,1.10
2018-04-27T13:12:24.395Z,1.07
2018-04-27T13:14:50.566Z,1.30
2018-04-27T13:17:17.506Z,1.20
2018-04-27T13:19:43.691Z,1.13
2018-04-27T13:22:09.862Z,1.50
2018-04-27T13:24:36.076Z,1.20
2018-04-27T13:27:02.262Z,1.30
2018-04-27T13:29:29.173Z,1.20
2018-04-27T13:31:55.372Z,1.10
2018-04-27T13:34:21.604Z,1.37
2018-04-27T13:36:47.812Z,1.30
2018-04-27T13:39:13.997Z,1.50
2018-04-27T13:41:40.177Z,1.40
2018-04-27T13:44:06.374Z,1.43
2018-04-27T13:46:32.566Z,1.40
2018-04-27T13:48:58.790Z,1.37
2018-04-27T13:51:24.988Z,1.13
2018-04-27T13:53:51.946Z,1.37
2018-04-27T13:56:18.875Z,1.50
2018-04-27T13:58:45.815Z,1.50
2018-04-27T14:01:12.041Z,1.10
2018-04-27T14:03:38.236Z,1.40
2018-04-27T14:06:04.433Z,1.57
2018-04-27T14:08:31.387Z,1.47
2018-04-27T14:10:57.582Z,1.40
2018-04-27T14:13:23.801Z,1.10
2018-04-27T14:15:49.994Z,1.77
2018-04-27T14:18:16.922Z,1.87
2018-04-27T14:20:43.127Z,1.43
2018-04-27T14:23:09.309Z,1.43
2018-04-27T14:25:36.266Z,1.37
2018-04-27T14:28:02.469Z,1.40
2018-04-27T14:30:28.669Z,1.33
2018-04-27T14:32:54.870Z,1.40
2018-04-27T14:35:21.060Z,1.40
2018-04-27T14:37:47.300Z,1.30
2018-04-27T14:40:13.474Z,1.50
2018-04-27T14:42:39.657Z,1.43
2018-04-27T14:45:05.829Z,1.70
2018-04-27T14:47:32.766Z,1.00
2018-04-27T14:49:59.753Z,1.40
2018-04-27T14:52:25.998Z,1.50
2018-04-27T14:54:52.896Z,1.33
2018-04-27T14:57:19.106Z,1.33
2018-04-27T14:59:45.289Z,1.40
2018-04-27T15:02:11.499Z,2.00
2018-04-27T15:04:38.406Z,1.23
2018-04-27T15:07:04.595Z,1.50
2018-04-27T15:09:30.781Z,1.50
2018-04-27T15:11:56.966Z,1.50
2018-04-27T15:14:23.173Z,1.47
2018-04-27T15:16:49.349Z,1.87
2018-04-27T15:19:15.545Z,1.80
2018-04-27T15:21:42.485Z,1.93
2018-04-27T15:24:08.729Z,1.37
2018-04-27T15:26:34.939Z,1.13
2018-04-27T15:29:01.152Z,1.90
2018-04-27T15:31:27.337Z,2.20
2018-04-27T15:33:54.542Z,1.77
2018-04-27T15:36:21.074Z,1.73
2018-04-27T15:38:47.291Z,1.83
2018-04-27T15:41:13.483Z,1.70
2018-04-27T15:43:39.689Z,1.50
2018-04-27T15:46:05.893Z,1.40
2018-04-27T15:48:32.084Z,1.63
2018-04-27T15:50:58.399Z,1.40
2018-04-27T15:53:24.529Z,1.30
2018-04-27T15:55:50.726Z,1.57
2018-04-27T15:58:16.910Z,1.70
2018-04-27T16:00:43.109Z,0.87
2018-04-27T16:03:09.318Z,1.37
2018-04-27T16:05:35.508Z,1.17
2018-04-27T16:08:01.694Z,1.70
2018-04-27T16:10:27.919Z,1.50
2018-04-27T16:15:52.899Z,1.53
2018-04-27T16:18:19.871Z,1.43
2018-04-27T16:20:46.066Z,1.40
2018-04-27T16:23:12.274Z,1.70
2018-04-27T16:25:38.452Z,1.10
2018-04-27T16:28:05.444Z,1.20
2018-04-27T16:30:31.626Z,1.30
2018-04-27T16:32:57.829Z,1.30
2018-04-27T16:35:24.030Z,1.50
2018-04-27T16:37:50.234Z,1.50
2018-04-27T16:40:17.314Z,1.00
2018-04-27T16:42:43.482Z,1.40
2018-04-27T16:45:09.722Z,1.33
2018-04-27T16:47:35.917Z,1.30
2018-04-27T16:50:02.108Z,1.10
2018-04-27T16:52:28.310Z,1.40
2018-04-27T16:54:54.498Z,1.30
2018-04-27T16:57:20.716Z,1.30
2018-04-27T16:59:47.676Z,1.30
2018-04-27T17:02:14.590Z,1.30
2018-04-27T17:04:40.781Z,1.23
2018-04-27T17:07:06.987Z,1.63
2018-04-27T17:09:33.974Z,1.47
2018-04-27T17:12:00.227Z,1.40
2018-04-27T17:14:26.424Z,1.33
2018-04-27T17:16:52.617Z,1.20
2018-04-27T17:19:18.864Z,1.40
2018-04-27T17:21:45.061Z,1.40
2018-04-27T17:24:11.261Z,1.60
2018-04-27T17:26:37.597Z,1.30
2018-04-27T17:29:04.393Z,1.50
2018-04-27T17:31:30.582Z,1.53
2018-04-27T17:33:56.801Z,1.60
2018-04-27T17:36:22.998Z,1.67
2018-04-27T17:38:49.202Z,1.40
2018-04-27T17:41:15.405Z,1.60
2018-04-27T17:43:41.603Z,1.17
2018-04-27T17:46:07.818Z,1.50
2018-04-27T17:48:34.010Z,1.40
2018-04-27T17:51:00.231Z,1.43
2018-04-27T17:53:26.522Z,1.30
2018-04-27T17:55:53.404Z,1.50
2018-04-27T17:58:20.382Z,1.20
2018-04-27T18:00:46.558Z,1.23
2018-04-27T18:03:12.739Z,1.37
2018-04-27T18:05:38.960Z,1.40
2018-04-27T18:08:05.926Z,1.60
2018-04-27T18:10:32.146Z,1.53
2018-04-27T18:12:58.350Z,1.43
2018-04-27T18:15:24.540Z,1.40
2018-04-27T18:17:50.737Z,1.60
2018-04-27T18:20:17.693Z,1.50
2018-04-27T18:22:44.661Z,1.77
2018-04-27T18:25:10.857Z,1.40
2018-04-27T18:27:37.051Z,1.80
2018-04-27T18:30:03.248Z,1.40
2018-04-27T18:32:29.441Z,1.50
2018-04-27T18:34:55.661Z,1.20
2018-04-27T18:37:21.894Z,1.50
2018-04-27T18:39:48.098Z,1.50
2018-04-27T18:42:14.320Z,1.57
2018-04-27T18:44:40.498Z,1.40
2018-04-27T18:47:06.695Z,1.40
2018-04-27T18:49:32.909Z,1.20
2018-04-27T18:51:59.106Z,1.30
2018-04-27T18:54:25.302Z,1.67
2018-04-27T18:56:51.489Z,1.60
2018-04-27T18:59:18.413Z,1.70
2018-04-27T19:01:44.634Z,1.57
2018-04-27T19:04:10.832Z,1.83
2018-04-27T19:06:37.025Z,1.57
2018-04-27T19:09:03.261Z,1.70
2018-04-27T19:11:29.463Z,1.63
2018-04-27T19:13:55.668Z,2.07
2018-04-27T19:16:21.856Z,1.60
2018-04-27T19:18:48.052Z,1.70
2018-04-27T19:21:18.194Z,1.50
2018-04-27T19:23:44.391Z,1.27
2018-04-27T19:26:11.546Z,1.63
2018-04-27T19:28:37.724Z,1.97
2018-04-27T19:31:03.941Z,1.30
2018-04-27T19:33:31.024Z,1.20
2018-04-27T19:35:57.235Z,1.53
2018-04-27T19:38:23.469Z,1.20
2018-04-27T19:40:49.686Z,2.43
2018-04-27T19:43:15.866Z,1.70
2018-04-27T19:45:42.798Z,1.90
2018-04-27T19:48:08.994Z,2.00
2018-04-27T19:50:35.192Z,1.60
2018-04-27T19:53:02.150Z,2.20
2018-04-27T19:55:29.085Z,2.07
2018-04-27T19:57:56.035Z,1.80
2018-04-27T20:00:37.269Z,1.70
2018-04-27T20:03:03.498Z,2.53
2018-04-27T20:05:29.686Z,2.37
2018-04-27T20:07:56.618Z,2.70
2018-04-27T20:10:23.641Z,1.90
2018-04-27T20:12:49.832Z,2.20
2018-04-27T20:15:16.043Z,2.27
2018-04-27T20:17:51.446Z,1.80
2018-04-27T20:20:17.679Z,2.10
2018-04-27T20:22:47.815Z,2.07
2018-04-27T20:25:14.019Z,2.17
2018-04-27T20:27:42.083Z,1.83
2018-04-27T20:30:09.284Z,2.20
2018-04-27T20:32:35.507Z,1.97
2018-04-27T20:35:01.704Z,2.30
2018-04-27T20:37:27.906Z,1.77
2018-04-27T20:39:54.113Z,2.10
2018-04-27T20:42:20.309Z,2.40
2018-04-27T20:44:46.506Z,2.13
2018-04-27T20:47:13.450Z,2.17
2018-04-27T20:49:39.677Z,2.37
2018-04-27T20:52:05.869Z,2.33
2018-04-27T20:54:32.039Z,2.40
2018-04-27T20:56:58.254Z,2.40
2018-04-27T20:59:24.457Z,2.40
2018-04-27T21:01:50.681Z,2.27
2018-04-27T21:04:16.891Z,2.37
2018-04-27T21:06:43.821Z,2.47
2018-04-27T21:09:10.782Z,2.20
2018-04-27T21:11:36.994Z,2.07
2018-04-27T21:14:03.221Z,2.03
2018-04-27T21:16:29.418Z,1.87
2018-04-27T21:18:55.613Z,2.20
2018-04-27T21:21:21.813Z,2.03
2018-04-27T21:23:48.013Z,2.20
2018-04-27T21:26:14.201Z,2.00
2018-04-27T21:28:40.413Z,2.37
2018-04-27T21:31:06.588Z,2.60
2018-04-27T21:33:33.527Z,2.17
2018-04-27T21:35:59.744Z,2.27
2018-04-27T21:41:23.722Z,2.03
2018-04-27T21:43:49.915Z,2.43
2018-04-27T21:46:24.207Z,2.17
2018-04-27T21:48:51.135Z,2.23
2018-04-27T21:51:36.157Z,2.17
2018-04-27T21:54:10.806Z,2.10
2018-04-27T21:56:37.010Z,2.00
2018-04-27T21:59:03.200Z,1.70
2018-04-27T22:01:29.427Z,1.70
2018-04-27T22:03:57.594Z,1.90
2018-04-27T22:06:23.801Z,1.57
2018-04-27T22:08:50.073Z,1.90
2018-04-27T22:11:18.025Z,2.37
2018-04-27T22:13:44.233Z,2.10
2018-04-27T22:16:15.154Z,1.90
2018-04-27T22:18:42.111Z,2.10
2018-04-27T22:21:08.297Z,2.20
2018-04-27T22:23:34.503Z,1.70
2018-04-27T22:26:03.714Z,1.80
2018-04-27T22:28:35.899Z,1.67
2018-04-27T22:31:02.125Z,1.90
2018-04-27T22:33:30.038Z,1.97
2018-04-27T22:36:13.825Z,1.90
2018-04-27T22:38:41.866Z,2.00
2018-04-27T22:41:08.052Z,1.90
2018-04-27T22:43:35.007Z,1.87
2018-04-27T22:46:06.919Z,1.70
2018-04-27T22:48:34.033Z,1.90
2018-04-27T22:51:02.202Z,1.90
2018-04-27T22:53:29.195Z,2.07
2018-04-27T22:55:55.413Z,1.53
2018-04-27T22:58:22.353Z,1.87
2018-04-27T23:00:49.282Z,1.80
2018-04-27T23:03:18.618Z,1.80
2018-04-27T23:05:45.559Z,1.90
2018-04-27T23:08:12.485Z,2.20
2018-04-27T23:10:50.446Z,2.30
2018-04-27T23:13:20.625Z,2.50
2018-04-27T23:15:50.425Z,1.90
2018-04-27T23:18:17.409Z,1.90
2018-04-27T23:20:45.200Z,2.03
2018-04-27T23:23:11.382Z,2.03
2018-04-27T23:25:53.466Z,2.10
2018-04-27T23:28:19.649Z,2.43
2018-04-27T23:30:45.841Z,2.40
2018-04-27T23:33:12.037Z,2.33
2018-04-27T23:35:39.217Z,2.20
2018-04-27T23:38:05.436Z,2.10
2018-04-27T23:40:31.625Z,2.00
2018-04-27T23:42:58.010Z,2.10
2018-04-27T23:45:24.214Z,2.00
2018-04-27T23:47:50.401Z,2.17
2018-04-27T23:50:18.094Z,1.90
2018-04-27T23:52:44.302Z,2.20
2018-04-27T23:55:10.484Z,2.00
2018-04-27T23:57:36.682Z,2.33
